Time;durP1;ratioP1;P1;durP2;ratioP2;P2;SDS_P1;SDS_P2;PMS_P1;PMS_P2;Temp;Humidity;BMP_temperature;BMP_pressure;BME280_temperature;BME280_humidity;BME280_pressure;Samples;Min_cycle;Max_cycle;Signal;HPM_P1;HPM_P2
2024/02/25 00:01:21;;;;;;;1.30;0.95;;;7.00;99.90;;;;;;5042089;28;20823;-34
2024/02/25 00:03:47;;;;;;;1.80;1.38;;;7.00;99.90;;;;;;5041019;28;20654;-36
2024/02/25 00:06:12;;;;;;;2.22;1.10;;;7.00;99.90;;;;;;5040418;28;20112;-33
2024/02/25 00:08:38;;;;;;;1.70;1.05;;;7.00;99.90;;;;;;5040794;28;20101;-37
2024/02/25 00:11:04;;;;;;;1.15;1.00;;;7.00;99.90;;;;;;5040907;28;20029;-37
2024/02/25 00:13:31;;;;;;;1.02;0.93;;;7.00;99.90;;;;;;5040395;28;20048;-35
2024/02/25 00:15:56;;;;;;;1.30;1.02;;;7.00;99.90;;;;;;5041759;28;20425;-37
2024/02/25 00:18:22;;;;;;;1.70;0.90;;;7.00;99.90;;;;;;5041453;28;20535;-35
2024/02/25 00:20:47;;;;;;;1.15;0.90;;;7.00;99.90;;;;;;5042262;28;20898;-38
2024/02/25 00:23:13;;;;;;;1.70;0.93;;;7.00;99.90;;;;;;5041915;28;20548;-35
2024/02/25 00:25:39;;;;;;;1.02;0.80;;;7.00;99.90;;;;;;5041825;28;20540;-32
2024/02/25 00:28:04;;;;;;;1.10;0.93;;;7.00;99.90;;;;;;5042754;28;20037;-34
2024/02/25 00:30:30;;;;;;;1.67;1.00;;;7.00;99.90;;;;;;5041874;28;20127;-35
2024/02/25 00:32:56;;;;;;;0.73;0.70;;;7.10;99.90;;;;;;5042223;28;20489;-32
2024/02/25 00:35:21;;;;;;;1.02;0.77;;;7.00;99.90;;;;;;5041978;28;20029;-34
2024/02/25 00:37:47;;;;;;;0.90;0.80;;;7.10;99.90;;;;;;5042704;28;20094;-35
2024/02/25 00:40:14;;;;;;;1.02;0.90;;;7.00;99.90;;;;;;5041774;28;20353;-32
2024/02/25 00:42:39;;;;;;;1.42;0.95;;;7.00;99.90;;;;;;5041805;28;20174;-35
2024/02/25 00:45:05;;;;;;;0.93;0.60;;;7.00;99.90;;;;;;5041237;28;20029;-33
2024/02/25 00:47:31;;;;;;;1.92;1.00;;;7.00;99.90;;;;;;5041209;28;20531;-34
2024/02/25 00:49:57;;;;;;;1.13;0.88;;;7.10;99.90;;;;;;5041870;28;20036;-36
2024/02/25 00:52:24;;;;;;;1.13;0.80;;;7.10;99.90;;;;;;5040981;28;20025;-37
2024/02/25 00:54:50;;;;;;;1.95;0.98;;;7.00;99.90;;;;;;5041139;28;20037;-34
2024/02/25 00:57:16;;;;;;;3.20;1.05;;;7.00;99.90;;;;;;5041112;28;20037;-35
2024/02/25 00:59:41;;;;;;;1.35;0.90;;;7.00;99.90;;;;;;5041630;28;20050;-36
2024/02/25 01:02:07;;;;;;;1.02;0.70;;;7.00;99.90;;;;;;5040061;28;20442;-36
2024/02/25 01:04:32;;;;;;;1.15;0.90;;;7.00;99.90;;;;;;5041871;28;20025;-34
2024/02/25 01:06:58;;;;;;;2.42;0.82;;;7.00;99.90;;;;;;5041627;28;20027;-35
2024/02/25 01:09:23;;;;;;;1.00;0.90;;;7.00;99.90;;;;;;5040272;28;20036;-35
2024/02/25 01:11:49;;;;;;;1.10;0.80;;;7.00;99.90;;;;;;5041345;28;20102;-34
2024/02/25 01:14:16;;;;;;;0.70;0.60;;;7.00;99.90;;;;;;5041964;28;20033;-36
2024/02/25 01:16:42;;;;;;;0.90;0.85;;;7.00;99.90;;;;;;5041137;28;20040;-33
2024/02/25 01:19:08;;;;;;;1.42;1.10;;;7.10;99.90;;;;;;5041553;28;20182;-34
2024/02/25 01:21:34;;;;;;;1.98;0.98;;;7.00;99.90;;;;;;5041012;28;20388;-34
2024/02/25 01:24:03;;;;;;;0.90;0.70;;;7.10;99.90;;;;;;5040807;28;20025;-34
2024/02/25 01:26:28;;;;;;;0.90;0.65;;;7.00;99.90;;;;;;5041266;28;20048;-36
2024/02/25 01:28:57;;;;;;;0.80;0.60;;;7.00;99.90;;;;;;5040475;28;20057;-35
2024/02/25 01:31:23;;;;;;;0.80;0.70;;;7.00;99.90;;;;;;5040446;28;20783;-34
2024/02/25 01:33:49;;;;;;;1.40;0.80;;;6.90;99.90;;;;;;5041405;28;20024;-37
2024/02/25 01:36:15;;;;;;;1.13;0.80;;;6.90;99.90;;;;;;5039923;28;20777;-36
2024/02/25 01:38:41;;;;;;;1.98;0.90;;;6.90;99.90;;;;;;5041168;28;20021;-34
2024/02/25 01:41:06;;;;;;;1.48;0.80;;;6.80;99.90;;;;;;5041444;28;20025;-35
2024/02/25 01:43:37;;;;;;;2.22;0.80;;;6.80;99.90;;;;;;5039531;28;20099;-35
2024/02/25 01:46:03;;;;;;;1.17;0.82;;;6.80;99.90;;;;;;5040498;28;20053;-36
2024/02/25 01:48:29;;;;;;;2.03;1.10;;;6.80;99.90;;;;;;5040698;28;20137;-36
2024/02/25 01:50:54;;;;;;;0.82;0.80;;;6.80;99.90;;;;;;5040315;28;20021;-35
2024/02/25 01:53:20;;;;;;;2.10;1.27;;;6.80;99.90;;;;;;5040550;28;20028;-36
2024/02/25 01:55:50;;;;;;;1.00;0.80;;;6.80;99.90;;;;;;5041781;28;20032;-37
2024/02/25 01:58:17;;;;;;;1.02;0.88;;;6.80;99.90;;;;;;5040446;28;20032;-35
2024/02/25 02:00:44;;;;;;;1.27;0.85;;;6.80;99.90;;;;;;5041560;28;20033;-36
2024/02/25 02:03:09;;;;;;;2.00;1.10;;;6.80;99.90;;;;;;5040023;28;20051;-36
2024/02/25 02:05:36;;;;;;;1.25;0.73;;;6.80;99.90;;;;;;5040243;28;20033;-35
2024/02/25 02:08:03;;;;;;;1.38;0.90;;;6.80;99.90;;;;;;5040434;28;20029;-35
2024/02/25 02:10:29;;;;;;;1.63;1.33;;;6.90;99.90;;;;;;5040141;28;20021;-35
2024/02/25 02:12:54;;;;;;;1.25;0.80;;;6.80;99.90;;;;;;5040090;28;20400;-35
2024/02/25 02:15:20;;;;;;;1.42;0.75;;;6.80;99.90;;;;;;5040160;28;20828;-31
2024/02/25 02:17:46;;;;;;;1.00;0.90;;;6.80;99.90;;;;;;5040312;28;20108;-33
2024/02/25 02:20:15;;;;;;;1.30;0.98;;;6.80;99.90;;;;;;5040152;28;20464;-32
2024/02/25 02:22:41;;;;;;;0.93;0.70;;;6.80;99.90;;;;;;5039736;28;20021;-35
2024/02/25 02:25:08;;;;;;;2.05;0.85;;;6.80;99.90;;;;;;5039232;28;20806;-32
2024/02/25 02:27:37;;;;;;;1.27;0.60;;;6.80;99.90;;;;;;5039645;28;20087;-33
2024/02/25 02:30:04;;;;;;;1.00;0.75;;;6.80;99.90;;;;;;5040342;28;20454;-35
2024/02/25 02:32:33;;;;;;;2.15;0.80;;;6.90;99.90;;;;;;5038714;28;20029;-33
2024/02/25 02:34:59;;;;;;;1.95;1.00;;;6.90;99.90;;;;;;5036176;28;20203;-37
2024/02/25 02:37:24;;;;;;;1.52;0.80;;;6.90;99.90;;;;;;5039636;28;20650;-33
2024/02/25 02:39:50;;;;;;;0.82;0.80;;;6.90;99.90;;;;;;5039058;28;20037;-38
2024/02/25 02:42:16;;;;;;;1.63;0.93;;;6.90;99.90;;;;;;5039813;28;20064;-35
2024/02/25 02:44:45;;;;;;;0.70;0.70;;;6.90;99.90;;;;;;5039610;28;20103;-34
2024/02/25 02:47:12;;;;;;;0.77;0.77;;;6.90;99.90;;;;;;5039187;28;20029;-34
2024/02/25 02:49:38;;;;;;;1.50;0.80;;;7.00;99.90;;;;;;5040420;28;20048;-34
2024/02/25 02:52:04;;;;;;;0.80;0.80;;;7.00;99.90;;;;;;5040039;28;20064;-35
2024/02/25 02:54:32;;;;;;;1.10;0.93;;;7.00;99.90;;;;;;5039480;28;20043;-33
2024/02/25 02:56:58;;;;;;;0.88;0.73;;;7.00;99.90;;;;;;5040547;28;20035;-33
2024/02/25 02:59:24;;;;;;;1.15;0.90;;;7.00;99.90;;;;;;5039324;28;20033;-34
2024/02/25 03:01:50;;;;;;;0.90;0.90;;;7.10;99.90;;;;;;5039551;28;20039;-31
2024/02/25 03:04:17;;;;;;;1.27;0.85;;;7.00;99.90;;;;;;5039966;28;20020;-35
2024/02/25 03:06:42;;;;;;;0.93;0.85;;;7.00;99.90;;;;;;5039999;28;20154;-34
2024/02/25 03:09:08;;;;;;;1.20;0.93;;;7.10;99.90;;;;;;5038669;28;20060;-34
2024/02/25 03:11:34;;;;;;;0.85;0.80;;;7.10;99.90;;;;;;5039979;28;20061;-36
2024/02/25 03:14:02;;;;;;;0.82;0.77;;;7.10;99.90;;;;;;5040017;28;20029;-36
2024/02/25 03:16:28;;;;;;;0.70;0.70;;;7.10;99.90;;;;;;5039375;28;20025;-36
2024/02/25 03:18:53;;;;;;;0.55;0.50;;;7.10;99.90;;;;;;5040187;28;20018;-35
2024/02/25 03:21:19;;;;;;;0.70;0.70;;;7.10;99.90;;;;;;5038062;28;20460;-35
2024/02/25 03:23:44;;;;;;;0.60;0.60;;;7.10;99.90;;;;;;5040090;28;20025;-36
2024/02/25 03:26:18;;;;;;;1.10;1.00;;;7.10;99.90;;;;;;5042729;28;20056;-39
2024/02/25 03:28:44;;;;;;;1.02;0.80;;;7.10;99.90;;;;;;5042611;28;20531;-36
2024/02/25 03:31:09;;;;;;;0.95;0.90;;;7.10;99.90;;;;;;5043365;28;20128;-37
2024/02/25 03:33:35;;;;;;;0.80;0.80;;;7.10;99.90;;;;;;5043599;28;20035;-36
2024/02/25 03:36:01;;;;;;;0.73;0.63;;;7.10;99.90;;;;;;5042717;28;20078;-37
2024/02/25 03:38:27;;;;;;;0.90;0.80;;;7.10;99.90;;;;;;5042550;28;20048;-31
2024/02/25 03:40:52;;;;;;;1.00;0.90;;;7.10;99.90;;;;;;5042818;28;20032;-32
2024/02/25 03:43:18;;;;;;;0.80;0.80;;;7.10;99.90;;;;;;5041586;28;20025;-33
2024/02/25 03:45:44;;;;;;;0.70;0.70;;;7.10;99.90;;;;;;5042694;28;20052;-34
2024/02/25 03:48:10;;;;;;;0.80;0.80;;;7.10;99.90;;;;;;5043130;28;20526;-35
2024/02/25 03:50:36;;;;;;;0.73;0.68;;;7.20;99.90;;;;;;5042159;28;20051;-35
2024/02/25 03:53:02;;;;;;;0.82;0.80;;;7.20;99.90;;;;;;5042465;28;20059;-36
2024/02/25 03:55:28;;;;;;;0.70;0.70;;;7.20;99.90;;;;;;5040724;28;20025;-36
2024/02/25 03:57:55;;;;;;;0.60;0.60;;;7.10;99.90;;;;;;5040990;28;20035;-32
2024/02/25 04:00:24;;;;;;;1.55;0.90;;;7.20;99.90;;;;;;5039743;28;20108;-36
2024/02/25 04:02:49;;;;;;;0.85;0.80;;;7.20;99.90;;;;;;5040370;28;20047;-36
2024/02/25 04:05:16;;;;;;;1.40;0.80;;;7.10;99.90;;;;;;5056314;28;20515;-36
2024/02/25 04:07:47;;;;;;;1.00;0.80;;;7.20;99.90;;;;;;5041828;28;20821;-37
2024/02/25 04:10:16;;;;;;;1.02;0.93;;;7.10;99.90;;;;;;5042230;28;20029;-33
2024/02/25 04:12:42;;;;;;;1.10;0.85;;;7.10;99.90;;;;;;5041577;28;20049;-34
2024/02/25 04:15:08;;;;;;;0.60;0.60;;;7.10;99.90;;;;;;5042150;28;20079;-34
2024/02/25 04:17:34;;;;;;;0.77;0.77;;;7.10;99.90;;;;;;5041464;28;20056;-31
2024/02/25 04:20:00;;;;;;;1.02;0.80;;;7.10;99.90;;;;;;5042558;28;20540;-36
2024/02/25 04:22:26;;;;;;;0.85;0.80;;;7.10;99.90;;;;;;5041704;28;20029;-34
2024/02/25 04:24:52;;;;;;;2.38;0.70;;;7.10;99.90;;;;;;5041250;28;20756;-37
2024/02/25 04:27:18;;;;;;;0.93;0.90;;;7.10;99.90;;;;;;5041050;28;20060;-34
2024/02/25 04:29:44;;;;;;;1.35;0.80;;;7.10;99.90;;;;;;5042585;28;20044;-35
2024/02/25 04:32:10;;;;;;;1.45;0.73;;;7.10;99.90;;;;;;5040356;28;20021;-36
2024/02/25 04:34:36;;;;;;;0.80;0.80;;;7.10;99.90;;;;;;5041115;28;20522;-31
2024/02/25 04:37:05;;;;;;;0.60;0.60;;;7.10;99.90;;;;;;5040647;28;20816;-37
2024/02/25 04:39:31;;;;;;;0.90;0.80;;;7.10;99.90;;;;;;5041495;28;20018;-35
2024/02/25 04:41:57;;;;;;;1.13;0.70;;;7.10;99.90;;;;;;5042397;28;20044;-34
2024/02/25 04:44:23;;;;;;;0.70;0.68;;;7.10;99.90;;;;;;5041493;28;20807;-33
2024/02/25 04:46:51;;;;;;;0.77;0.77;;;7.10;99.90;;;;;;5041065;28;20033;-36
2024/02/25 04:49:17;;;;;;;0.60;0.60;;;7.10;99.90;;;;;;5041010;28;20497;-34
2024/02/25 04:51:46;;;;;;;0.60;0.60;;;7.10;99.90;;;;;;5041660;28;20033;-33
2024/02/25 04:54:15;;;;;;;1.63;1.13;;;7.10;99.90;;;;;;5040321;28;20017;-35
2024/02/25 04:56:44;;;;;;;0.52;0.52;;;7.10;99.90;;;;;;5040971;28;20029;-33
2024/02/25 04:59:11;;;;;;;0.60;0.60;;;7.20;99.90;;;;;;5040799;28;20083;-34
2024/02/25 05:01:43;;;;;;;0.57;0.57;;;7.20;99.90;;;;;;5021134;28;20203;-37
2024/02/25 05:04:09;;;;;;;0.52;0.52;;;7.10;99.90;;;;;;5036658;28;20163;-30
2024/02/25 05:06:35;;;;;;;0.95;0.80;;;7.10;99.90;;;;;;5041643;28;20029;-33
2024/02/25 05:09:01;;;;;;;0.70;0.70;;;7.10;99.90;;;;;;5041016;28;20067;-36
2024/02/25 05:11:26;;;;;;;0.50;0.50;;;7.10;99.90;;;;;;5041151;28;20115;-36
2024/02/25 05:13:54;;;;;;;0.57;0.57;;;7.10;99.90;;;;;;5041091;28;20032;-35
2024/02/25 05:16:19;;;;;;;0.40;0.40;;;7.10;99.90;;;;;;5040809;28;20032;-37
2024/02/25 05:18:45;;;;;;;0.68;0.68;;;7.10;99.90;;;;;;5041293;28;20024;-34
2024/02/25 05:21:10;;;;;;;0.52;0.52;;;7.10;99.90;;;;;;5040583;28;20033;-37
2024/02/25 05:23:36;;;;;;;0.80;0.80;;;7.10;99.90;;;;;;5040642;28;20025;-37
2024/02/25 05:26:02;;;;;;;0.52;0.52;;;7.10;99.90;;;;;;5040883;28;20029;-36
2024/02/25 05:28:31;;;;;;;0.65;0.52;;;7.10;99.90;;;;;;5039347;28;20064;-32
2024/02/25 05:30:56;;;;;;;0.50;0.50;;;7.10;99.90;;;;;;5041193;28;20045;-31
2024/02/25 05:33:22;;;;;;;0.68;0.68;;;7.10;99.90;;;;;;5040480;28;20907;-35
2024/02/25 05:35:48;;;;;;;0.65;0.60;;;7.10;99.90;;;;;;5039855;28;20025;-36
2024/02/25 05:38:13;;;;;;;0.70;0.70;;;7.10;99.90;;;;;;5041015;28;20025;-32
2024/02/25 05:40:41;;;;;;;0.80;0.80;;;7.10;99.90;;;;;;5039757;28;20036;-37
2024/02/25 05:43:07;;;;;;;0.90;0.70;;;7.00;99.90;;;;;;5039646;28;20050;-35
2024/02/25 05:45:33;;;;;;;0.50;0.50;;;7.10;99.90;;;;;;5040786;28;20040;-37
2024/02/25 05:47:59;;;;;;;0.80;0.70;;;7.00;99.90;;;;;;5040043;28;20044;-37
2024/02/25 05:50:25;;;;;;;0.93;0.60;;;7.10;99.90;;;;;;5039405;28;20043;-37
2024/02/25 05:52:50;;;;;;;0.68;0.68;;;7.00;99.90;;;;;;5040586;28;20099;-36
2024/02/25 05:55:19;;;;;;;1.10;0.73;;;7.10;99.90;;;;;;5039553;28;20017;-35
2024/02/25 05:57:44;;;;;;;1.00;0.70;;;7.10;99.90;;;;;;5039902;28;20487;-35
2024/02/25 06:00:13;;;;;;;0.77;0.68;;;7.10;99.90;;;;;;5039678;28;20563;-33
2024/02/25 06:02:40;;;;;;;0.88;0.85;;;7.00;99.90;;;;;;5039629;28;20040;-31
2024/02/25 06:05:09;;;;;;;0.63;0.63;;;7.00;99.90;;;;;;5039096;28;20032;-35
2024/02/25 06:07:35;;;;;;;0.80;0.80;;;7.00;99.90;;;;;;5039878;28;20366;-35
2024/02/25 06:10:03;;;;;;;0.80;0.80;;;7.10;99.90;;;;;;5039836;28;20491;-37
2024/02/25 06:12:31;;;;;;;0.90;0.90;;;7.00;99.90;;;;;;5038973;28;20045;-37
2024/02/25 06:14:57;;;;;;;0.90;0.82;;;7.00;99.90;;;;;;5039903;28;20032;-35
2024/02/25 06:17:22;;;;;;;1.17;1.08;;;7.00;99.90;;;;;;5038622;28;20021;-36
2024/02/25 06:19:53;;;;;;;0.90;0.90;;;7.00;99.90;;;;;;5039834;28;20029;-36
2024/02/25 06:22:19;;;;;;;0.70;0.70;;;7.00;99.90;;;;;;5039549;28;20049;-33
2024/02/25 06:24:45;;;;;;;0.80;0.80;;;7.00;99.90;;;;;;5039834;28;20125;-33
2024/02/25 06:27:13;;;;;;;0.90;0.90;;;6.90;99.90;;;;;;5039430;28;20056;-32
2024/02/25 06:29:39;;;;;;;1.08;0.90;;;6.90;99.90;;;;;;5040214;28;20142;-33
2024/02/25 06:32:05;;;;;;;1.20;1.10;;;6.90;99.90;;;;;;5039788;28;20035;-35
2024/02/25 06:34:31;;;;;;;1.00;1.00;;;7.00;99.90;;;;;;5040121;28;20037;-35
2024/02/25 06:36:56;;;;;;;1.00;1.00;;;7.00;99.90;;;;;;5039606;28;20776;-32
2024/02/25 06:39:22;;;;;;;0.80;0.80;;;7.00;99.90;;;;;;5038954;28;20409;-37
2024/02/25 06:41:47;;;;;;;1.10;1.10;;;7.00;99.90;;;;;;5039846;28;20031;-37
2024/02/25 06:44:13;;;;;;;0.80;0.80;;;7.00;99.90;;;;;;5039317;28;20557;-35
2024/02/25 06:46:42;;;;;;;1.20;1.10;;;7.00;99.90;;;;;;5039215;28;20477;-32
2024/02/25 06:49:08;;;;;;;1.10;1.10;;;7.00;99.90;;;;;;5039772;28;20048;-31
2024/02/25 06:51:33;;;;;;;0.90;0.90;;;7.00;99.90;;;;;;5039342;28;20021;-36
2024/02/25 06:53:59;;;;;;;0.90;0.90;;;7.10;99.90;;;;;;5038701;28;20136;-39
2024/02/25 06:56:24;;;;;;;0.90;0.90;;;7.10;99.90;;;;;;5039617;28;20472;-35
2024/02/25 06:58:50;;;;;;;0.88;0.88;;;7.10;99.90;;;;;;5040005;28;20032;-34
2024/02/25 07:01:16;;;;;;;1.17;1.08;;;7.10;99.90;;;;;;5042716;28;20868;-36
2024/02/25 07:03:45;;;;;;;1.20;1.10;;;7.10;99.90;;;;;;5043185;28;20048;-35
2024/02/25 07:06:11;;;;;;;1.17;1.08;;;7.00;99.90;;;;;;5043560;28;20029;-36
2024/02/25 07:08:37;;;;;;;1.80;1.10;;;7.10;99.90;;;;;;5042869;28;20419;-38
2024/02/25 07:11:23;;;;;;;1.40;1.30;;;7.00;99.90;;;;;;5043248;28;20807;-35
2024/02/25 07:13:49;;;;;;;1.42;1.33;;;7.10;99.90;;;;;;5042385;28;20041;-35
2024/02/25 07:16:15;;;;;;;2.80;1.30;;;7.10;99.90;;;;;;5043416;28;20021;-35
2024/02/25 07:18:43;;;;;;;1.30;1.20;;;7.10;99.90;;;;;;5042538;28;20448;-33
2024/02/25 07:21:11;;;;;;;1.33;1.20;;;7.10;99.90;;;;;;5041810;28;20063;-35
2024/02/25 07:23:43;;;;;;;1.30;1.20;;;7.10;99.90;;;;;;5043580;28;20087;-33
2024/02/25 07:26:14;;;;;;;1.60;1.50;;;7.10;99.90;;;;;;5042804;28;20021;-34
2024/02/25 07:28:40;;;;;;;1.30;1.20;;;7.10;99.90;;;;;;5042550;28;20059;-37
2024/02/25 07:31:16;;;;;;;1.40;1.30;;;7.10;99.90;;;;;;5042698;28;20033;-38
2024/02/25 07:33:45;;;;;;;1.50;1.40;;;7.10;99.90;;;;;;5042340;28;20113;-38
2024/02/25 07:36:12;;;;;;;1.70;1.60;;;7.10;99.90;;;;;;5041205;28;20025;-36
2024/02/25 07:38:39;;;;;;;1.80;1.70;;;7.20;99.90;;;;;;5042301;28;20059;-38
2024/02/25 07:41:05;;;;;;;1.70;1.60;;;7.20;99.90;;;;;;5043170;28;20891;-33
2024/02/25 07:43:35;;;;;;;1.70;1.60;;;7.20;99.90;;;;;;5042469;28;20055;-37
2024/02/25 07:46:03;;;;;;;1.63;1.52;;;7.20;99.90;;;;;;5043789;28;20031;-35
2024/02/25 07:48:29;;;;;;;1.70;1.60;;;7.20;99.90;;;;;;5043238;28;20115;-36
2024/02/25 07:50:55;;;;;;;1.25;1.15;;;7.30;99.90;;;;;;5042312;28;20071;-34
2024/02/25 07:53:21;;;;;;;1.50;1.40;;;7.30;99.90;;;;;;5042051;28;20029;-33
2024/02/25 07:55:46;;;;;;;1.65;1.55;;;7.30;99.90;;;;;;5042197;28;20029;-36
2024/02/25 07:58:12;;;;;;;2.00;1.55;;;7.30;99.90;;;;;;5042053;28;20236;-34
2024/02/25 08:00:38;;;;;;;2.22;2.03;;;7.30;99.90;;;;;;5042477;28;20036;-34
2024/02/25 08:03:06;;;;;;;1.95;1.85;;;7.40;99.90;;;;;;5042294;28;20463;-34
2024/02/25 08:05:32;;;;;;;2.15;1.58;;;7.40;99.90;;;;;;5042699;28;20025;-37
2024/02/25 08:07:57;;;;;;;1.55;1.45;;;7.40;99.90;;;;;;5043321;28;20407;-36
2024/02/25 08:10:23;;;;;;;1.60;1.50;;;7.40;99.90;;;;;;5041581;28;20028;-36
2024/02/25 08:12:49;;;;;;;1.60;1.50;;;7.40;99.90;;;;;;5041840;28;20060;-35
2024/02/25 08:15:15;;;;;;;1.50;1.40;;;7.40;99.90;;;;;;5041566;28;20032;-35
2024/02/25 08:17:40;;;;;;;1.88;1.77;;;7.50;99.90;;;;;;5041521;28;20088;-35
2024/02/25 08:20:10;;;;;;;1.90;1.80;;;7.50;99.90;;;;;;5042221;28;20860;-38
2024/02/25 08:22:38;;;;;;;1.90;1.80;;;7.50;99.90;;;;;;5042152;28;20104;-35
2024/02/25 08:25:04;;;;;;;2.20;2.00;;;7.50;99.90;;;;;;5041781;28;20025;-37
2024/02/25 08:27:32;;;;;;;2.03;1.70;;;7.50;99.90;;;;;;5041952;28;20029;-38
2024/02/25 08:30:01;;;;;;;1.90;1.70;;;7.50;99.90;;;;;;5042423;28;20427;-37
2024/02/25 08:32:27;;;;;;;2.38;1.83;;;7.60;99.90;;;;;;5040166;28;20040;-36
2024/02/25 08:34:55;;;;;;;2.38;2.00;;;7.60;99.90;;;;;;5044660;28;20028;-37
2024/02/25 08:37:25;;;;;;;1.70;1.60;;;7.70;99.90;;;;;;5042731;28;20543;-38
2024/02/25 08:39:51;;;;;;;1.90;1.80;;;7.70;99.90;;;;;;5040813;28;20017;-35
2024/02/25 08:42:18;;;;;;;3.35;2.08;;;7.70;99.90;;;;;;5041809;28;20021;-31
2024/02/25 08:44:44;;;;;;;2.03;1.80;;;7.80;99.90;;;;;;5042420;28;20059;-35
2024/02/25 08:47:09;;;;;;;1.60;1.30;;;7.80;99.90;;;;;;5040599;28;20738;-36
2024/02/25 08:49:36;;;;;;;1.70;1.60;;;7.80;99.90;;;;;;5041128;28;20044;-31
2024/02/25 08:52:02;;;;;;;1.63;1.52;;;7.80;99.90;;;;;;5040635;28;20021;-35
2024/02/25 08:54:27;;;;;;;1.60;1.50;;;7.80;99.90;;;;;;5041220;28;20036;-35
2024/02/25 08:56:54;;;;;;;1.50;1.40;;;7.80;99.90;;;;;;5041356;28;20017;-34
2024/02/25 08:59:19;;;;;;;1.90;1.27;;;7.80;99.90;;;;;;5040692;28;20038;-32
2024/02/25 09:01:45;;;;;;;1.48;1.27;;;7.80;99.90;;;;;;5041339;28;20029;-34
2024/02/25 09:04:12;;;;;;;1.45;1.30;;;7.80;99.90;;;;;;5040895;28;20127;-34
2024/02/25 09:06:39;;;;;;;1.85;1.75;;;7.80;99.90;;;;;;5040426;28;20242;-32
2024/02/25 09:09:05;;;;;;;2.20;1.67;;;7.80;99.90;;;;;;5041170;28;20052;-35
2024/02/25 09:11:31;;;;;;;1.80;1.70;;;7.90;99.90;;;;;;5040830;28;20039;-35
2024/02/25 09:13:57;;;;;;;1.60;1.50;;;7.90;99.90;;;;;;5040561;28;20750;-33
2024/02/25 09:16:22;;;;;;;1.50;1.40;;;8.00;99.90;;;;;;5039938;28;20400;-34
2024/02/25 09:18:51;;;;;;;1.85;1.63;;;8.00;99.90;;;;;;5040802;28;20040;-34
2024/02/25 09:21:16;;;;;;;1.85;1.75;;;8.00;99.90;;;;;;5039957;28;20025;-35
2024/02/25 09:23:42;;;;;;;1.73;1.63;;;8.00;99.90;;;;;;5039780;28;20784;-35
2024/02/25 09:26:09;;;;;;;2.83;1.83;;;8.00;99.90;;;;;;5041155;28;20082;-34
2024/02/25 09:28:35;;;;;;;1.75;1.65;;;7.90;99.90;;;;;;5039645;28;20033;-34
2024/02/25 09:31:00;;;;;;;1.77;1.67;;;7.90;99.90;;;;;;5040033;28;20032;-37
2024/02/25 09:33:34;;;;;;;2.47;1.83;;;8.00;99.90;;;;;;5039931;28;20051;-34
2024/02/25 09:36:00;;;;;;;2.42;2.10;;;8.00;99.90;;;;;;5039772;28;20029;-35
2024/02/25 09:38:28;;;;;;;1.95;1.80;;;8.10;99.90;;;;;;5039910;28;20918;-33
2024/02/25 09:41:02;;;;;;;2.05;1.85;;;8.10;99.90;;;;;;5040382;28;20031;-34
2024/02/25 09:43:28;;;;;;;1.85;1.75;;;8.00;99.90;;;;;;5040053;28;20048;-35
2024/02/25 09:45:56;;;;;;;1.88;1.77;;;7.90;99.90;;;;;;5040673;28;20219;-34
2024/02/25 09:48:23;;;;;;;2.17;1.95;;;7.90;99.90;;;;;;5039751;28;20041;-36
2024/02/25 09:50:50;;;;;;;2.08;1.88;;;7.80;99.90;;;;;;5040520;28;20021;-35
2024/02/25 09:53:16;;;;;;;2.05;1.70;;;7.80;99.90;;;;;;5039476;28;20137;-36
2024/02/25 09:55:46;;;;;;;1.80;1.70;;;7.80;99.90;;;;;;5039765;28;20036;-35
2024/02/25 09:58:11;;;;;;;2.53;1.85;;;7.80;99.90;;;;;;5040636;28;20079;-36
2024/02/25 10:00:38;;;;;;;2.05;1.67;;;7.80;99.90;;;;;;5040074;28;20508;-37
2024/02/25 10:03:09;;;;;;;1.67;1.58;;;7.80;99.90;;;;;;5039990;28;20024;-34
2024/02/25 10:05:37;;;;;;;1.75;1.65;;;7.80;99.90;;;;;;5040312;28;20045;-34
2024/02/25 10:08:10;;;;;;;1.67;1.58;;;7.80;99.90;;;;;;5039964;28;20484;-31
2024/02/25 10:10:36;;;;;;;1.55;1.40;;;7.80;99.90;;;;;;5039097;28;20035;-33
2024/02/25 10:13:03;;;;;;;1.30;1.20;;;7.80;99.90;;;;;;5039459;28;20412;-35
2024/02/25 10:15:29;;;;;;;1.70;1.60;;;7.80;99.90;;;;;;5039745;28;20132;-33
2024/02/25 10:17:55;;;;;;;1.98;1.88;;;7.80;99.90;;;;;;5038998;28;20021;-31
2024/02/25 10:20:21;;;;;;;1.50;1.40;;;7.80;99.90;;;;;;5040096;28;20025;-33
2024/02/25 10:22:46;;;;;;;1.70;1.60;;;7.80;99.90;;;;;;5040518;28;20646;-36
2024/02/25 10:25:12;;;;;;;1.98;1.70;;;8.00;99.90;;;;;;5038855;28;20032;-31
2024/02/25 10:27:37;;;;;;;1.50;1.40;;;8.10;99.90;;;;;;5039542;28;20845;-33
2024/02/25 10:30:07;;;;;;;1.70;1.60;;;8.30;99.90;;;;;;5039296;28;20036;-36
2024/02/25 10:32:38;;;;;;;1.88;1.77;;;8.40;99.90;;;;;;5038397;28;20139;-31
2024/02/25 10:35:04;;;;;;;1.90;1.80;;;8.60;99.90;;;;;;5039455;28;20086;-37
2024/02/25 10:37:30;;;;;;;1.88;1.67;;;8.80;99.90;;;;;;5039251;28;20017;-32
2024/02/25 10:39:57;;;;;;;1.90;1.80;;;8.90;99.90;;;;;;5039492;28;20031;-32
2024/02/25 10:42:27;;;;;;;2.63;1.98;;;9.00;99.90;;;;;;5039489;28;20387;-39
2024/02/25 10:44:57;;;;;;;2.55;1.90;;;9.10;99.90;;;;;;5039589;28;20027;-33
2024/02/25 10:47:25;;;;;;;2.85;2.00;;;9.10;99.90;;;;;;5039464;28;20147;-33
2024/02/25 10:49:52;;;;;;;2.00;1.88;;;9.20;99.90;;;;;;5039446;28;20035;-30
2024/02/25 10:52:26;;;;;;;2.70;2.50;;;9.30;99.90;;;;;;5038329;28;20523;-31
2024/02/25 10:54:53;;;;;;;2.97;2.30;;;9.20;99.90;;;;;;5039428;28;20463;-34
2024/02/25 10:57:24;;;;;;;2.45;2.10;;;9.20;99.90;;;;;;5039522;28;20801;-35
2024/02/25 10:59:50;;;;;;;2.67;2.28;;;9.30;99.90;;;;;;5043283;28;20017;-33
2024/02/25 11:02:21;;;;;;;2.65;2.30;;;9.20;99.90;;;;;;5040066;28;20102;-35
2024/02/25 11:04:48;;;;;;;2.72;1.98;;;9.30;99.90;;;;;;5039558;28;20021;-36
2024/02/25 11:07:16;;;;;;;2.30;2.10;;;9.30;99.90;;;;;;5038866;28;20051;-36
2024/02/25 11:09:48;;;;;;;2.42;2.17;;;9.30;99.90;;;;;;5039589;28;20029;-37
2024/02/25 11:12:24;;;;;;;2.00;1.90;;;9.30;99.90;;;;;;5035673;28;20123;-35
2024/02/25 11:15:01;;;;;;;1.92;1.83;;;9.30;99.90;;;;;;5039364;28;20171;-31
2024/02/25 11:17:32;;;;;;;2.15;2.03;;;9.40;99.90;;;;;;5036481;28;20033;-33
2024/02/25 11:20:05;;;;;;;2.10;2.00;;;9.40;99.90;;;;;;5040117;28;20079;-32
2024/02/25 11:22:37;;;;;;;2.80;2.15;;;9.50;99.90;;;;;;5039961;28;20032;-36
2024/02/25 11:25:03;;;;;;;3.38;2.05;;;9.50;99.90;;;;;;5040417;28;20083;-34
2024/02/25 11:27:49;;;;;;;2.22;2.00;;;9.50;99.90;;;;;;5038793;28;20021;-37
2024/02/25 11:30:18;;;;;;;2.72;1.77;;;9.50;99.90;;;;;;5039435;28;20037;-37
2024/02/25 11:32:43;;;;;;;3.92;1.95;;;9.60;99.90;;;;;;5039476;28;20021;-34
2024/02/25 11:35:15;;;;;;;3.53;2.83;;;9.60;99.90;;;;;;5038604;28;20033;-38
2024/02/25 11:37:43;;;;;;;3.45;2.45;;;9.60;99.90;;;;;;5039314;28;20036;-35
2024/02/25 11:40:10;;;;;;;2.55;2.35;;;9.60;99.90;;;;;;5039175;28;20040;-36
2024/02/25 11:42:40;;;;;;;2.83;2.58;;;9.60;99.90;;;;;;5038777;28;20406;-35
2024/02/25 11:45:06;;;;;;;3.08;2.55;;;9.60;99.90;;;;;;5019995;28;20033;-35
2024/02/25 11:47:31;;;;;;;2.20;2.00;;;9.60;99.90;;;;;;5036992;28;20650;-33
2024/02/25 11:49:58;;;;;;;1.90;1.80;;;9.70;99.90;;;;;;5043104;28;20036;-36
2024/02/25 11:52:24;;;;;;;2.45;2.20;;;9.70;99.90;;;;;;5043017;28;20021;-36
2024/02/25 11:54:50;;;;;;;2.33;2.13;;;9.80;99.90;;;;;;5042368;28;20032;-35
2024/02/25 11:57:17;;;;;;;2.08;1.90;;;9.80;99.90;;;;;;5042848;28;20354;-32
2024/02/25 11:59:44;;;;;;;2.70;2.20;;;9.80;99.90;;;;;;5043950;28;20033;-35
2024/02/25 12:02:10;;;;;;;3.67;2.67;;;9.80;99.90;;;;;;5042626;28;20127;-36
2024/02/25 12:04:36;;;;;;;2.90;2.20;;;9.80;99.90;;;;;;5043159;28;20025;-36
2024/02/25 12:07:04;;;;;;;2.75;2.20;;;9.80;99.90;;;;;;5042710;28;20472;-36
2024/02/25 12:09:30;;;;;;;2.25;2.05;;;9.80;99.90;;;;;;5042334;28;20143;-37
2024/02/25 12:11:55;;;;;;;2.50;2.30;;;9.90;99.90;;;;;;5042463;28;20460;-38
2024/02/25 12:14:21;;;;;;;2.08;1.88;;;10.00;99.90;;;;;;5042631;28;20614;-34
2024/02/25 12:16:50;;;;;;;2.65;2.08;;;10.00;99.90;;;;;;5042516;28;20029;-36
2024/02/25 12:19:16;;;;;;;2.20;2.00;;;10.00;99.90;;;;;;5042289;28;20136;-36
2024/02/25 12:21:49;;;;;;;2.55;1.90;;;10.00;99.90;;;;;;5043145;28;20025;-36
2024/02/25 12:24:15;;;;;;;1.80;1.70;;;10.10;99.90;;;;;;5041907;28;20076;-37
2024/02/25 12:27:07;;;;;;;3.28;1.60;;;10.10;99.90;;;;;;5042064;28;20107;-35
2024/02/25 12:29:39;;;;;;;1.80;1.70;;;10.20;99.90;;;;;;5040299;28;20044;-32
2024/02/25 12:32:09;;;;;;;2.15;1.75;;;10.30;99.90;;;;;;5041717;28;20423;-32
2024/02/25 12:34:37;;;;;;;2.15;1.83;;;10.40;99.90;;;;;;5041548;28;20021;-33
2024/02/25 12:37:04;;;;;;;2.40;2.20;;;10.50;99.90;;;;;;5041447;28;20148;-38
2024/02/25 12:39:30;;;;;;;2.13;1.92;;;10.60;99.90;;;;;;5042021;28;20484;-36
2024/02/25 12:42:01;;;;;;;1.92;1.65;;;10.70;99.90;;;;;;5042139;28;20028;-38
2024/02/25 12:44:27;;;;;;;1.65;1.30;;;10.70;99.90;;;;;;5040773;28;20025;-32
2024/02/25 12:46:53;;;;;;;1.60;1.45;;;10.70;99.90;;;;;;5041513;28;20024;-35
2024/02/25 12:49:19;;;;;;;1.30;1.20;;;10.80;99.90;;;;;;5040614;28;20642;-32
2024/02/25 12:51:44;;;;;;;1.60;1.50;;;10.90;99.90;;;;;;5040790;28;20138;-36
2024/02/25 12:54:10;;;;;;;1.10;1.00;;;11.00;99.90;;;;;;5040789;28;20029;-37